Willis, Virginia
Current Conditions -  °F | °C
As of 2:55 PM on Sunday 21 Dec 2014 (Local Time) from KHLX Reporting Station
Overcast Overcast  
Wind Chill: 37°   Ceiling: 2900
Heat Index: 40°   Visibility: 10mi
Dew Point: 34°   Wind: 5mph
Humidity: 78%   Direction: 140°SE
Pressure: 30.15"   Gusts: NA
Location:  36.85°N, 80.48°W
Report Text: KHLX 211955Z AUTO 14004KT 10SM OVC029 05/01 A3015 RMK AO2 T00450010
Loading
Personal Weather Stations






























Interactive Weather Map New forecast layout! Learn more

10-Day Weather Forecast

Advertisements
Track Severe Weather on mobile